sensor_id;sensor_type;location;lat;lon;timestamp;temperature;humidity
1015;DHT22;8170;48.118;11.628;2022-12-29T00:00:10;2.80;99.90
1015;DHT22;8170;48.118;11.628;2022-12-29T00:01:15;2.80;99.90
1015;DHT22;8170;48.118;11.628;2022-12-29T00:02:20;2.80;99.90
1015;DHT22;8170;48.118;11.628;2022-12-29T00:03:22;2.80;99.90
1015;DHT22;8170;48.118;11.628;2022-12-29T00:04:26;2.80;99.90
1015;DHT22;8170;48.118;11.628;2022-12-29T00:05:28;2.80;99.90
1015;DHT22;8170;48.118;11.628;2022-12-29T00:06:32;2.80;99.90
1015;DHT22;8170;48.118;11.628;2022-12-29T00:07:34;2.80;99.90
1015;DHT22;8170;48.118;11.628;2022-12-29T00:08:37;2.80;99.90
1015;DHT22;8170;48.118;11.628;2022-12-29T00:09:42;2.80;99.90
1015;DHT22;8170;48.118;11.628;2022-12-29T00:10:46;2.80;99.90
1015;DHT22;8170;48.118;11.628;2022-12-29T00:11:48;2.80;99.90
1015;DHT22;8170;48.118;11.628;2022-12-29T00:12:51;2.80;99.90
1015;DHT22;8170;48.118;11.628;2022-12-29T00:14:12;2.80;99.90
1015;DHT22;8170;48.118;11.628;2022-12-29T00:15:35;2.80;99.90
1015;DHT22;8170;48.118;11.628;2022-12-29T00:16:42;2.80;99.90
1015;DHT22;8170;48.118;11.628;2022-12-29T00:17:47;2.80;99.90
1015;DHT22;8170;48.118;11.628;2022-12-29T00:18:49;2.90;99.90
1015;DHT22;8170;48.118;11.628;2022-12-29T00:19:52;2.80;99.90
1015;DHT22;8170;48.118;11.628;2022-12-29T00:21:14;2.90;99.90
1015;DHT22;8170;48.118;11.628;2022-12-29T00:22:34;2.90;99.90
1015;DHT22;8170;48.118;11.628;2022-12-29T00:23:55;2.90;99.90
1015;DHT22;8170;48.118;11.628;2022-12-29T00:25:16;2.90;99.90
1015;DHT22;8170;48.118;11.628;2022-12-29T00:26:39;2.90;99.90
1015;DHT22;8170;48.118;11.628;2022-12-29T00:28:00;2.90;99.90
1015;DHT22;8170;48.118;11.628;2022-12-29T00:29:21;2.90;99.90
1015;DHT22;8170;48.118;11.628;2022-12-29T00:30:53;2.90;99.90
1015;DHT22;8170;48.118;11.628;2022-12-29T00:32:15;2.90;99.90
1015;DHT22;8170;48.118;11.628;2022-12-29T00:33:42;2.90;99.90
1015;DHT22;8170;48.118;11.628;2022-12-29T00:35:04;2.90;99.90
1015;DHT22;8170;48.118;11.628;2022-12-29T00:36:16;2.90;99.90
1015;DHT22;8170;48.118;11.628;2022-12-29T00:37:20;3.00;99.90
1015;DHT22;8170;48.118;11.628;2022-12-29T00:38:47;3.00;99.90
1015;DHT22;8170;48.118;11.628;2022-12-29T00:40:10;3.00;99.90
1015;DHT22;8170;48.118;11.628;2022-12-29T00:41:30;3.00;99.90
1015;DHT22;8170;48.118;11.628;2022-12-29T00:42:51;3.00;99.90
1015;DHT22;8170;48.118;11.628;2022-12-29T00:44:13;3.00;99.90
1015;DHT22;8170;48.118;11.628;2022-12-29T00:45:18;3.00;99.90
1015;DHT22;8170;48.118;11.628;2022-12-29T00:46:22;3.00;99.90
1015;DHT22;8170;48.118;11.628;2022-12-29T00:47:25;3.00;99.90
1015;DHT22;8170;48.118;11.628;2022-12-29T00:48:28;3.00;99.90
1015;DHT22;8170;48.118;11.628;2022-12-29T00:49:50;3.00;99.90
1015;DHT22;8170;48.118;11.628;2022-12-29T00:50:55;3.00;99.90
1015;DHT22;8170;48.118;11.628;2022-12-29T00:52:00;3.00;99.90
1015;DHT22;8170;48.118;11.628;2022-12-29T00:53:03;3.00;99.90
1015;DHT22;8170;48.118;11.628;2022-12-29T00:54:06;2.90;99.90
1015;DHT22;8170;48.118;11.628;2022-12-29T00:55:09;2.90;99.90
1015;DHT22;8170;48.118;11.628;2022-12-29T00:56:12;2.90;99.90
1015;DHT22;8170;48.118;11.628;2022-12-29T00:57:15;2.90;99.90
1015;DHT22;8170;48.118;11.628;2022-12-29T00:58:18;2.90;99.90
1015;DHT22;8170;48.118;11.628;2022-12-29T00:59:22;2.90;99.90
1015;DHT22;8170;48.118;11.628;2022-12-29T01:00:26;2.80;99.90
1015;DHT22;8170;48.118;11.628;2022-12-29T01:01:30;2.80;99.90
1015;DHT22;8170;48.118;11.628;2022-12-29T01:02:33;2.90;99.90
1015;DHT22;8170;48.118;11.628;2022-12-29T01:03:38;2.80;99.90
1015;DHT22;8170;48.118;11.628;2022-12-29T01:04:40;2.80;99.90
1015;DHT22;8170;48.118;11.628;2022-12-29T01:05:45;2.80;99.90
1015;DHT22;8170;48.118;11.628;2022-12-29T01:06:47;2.80;99.90
1015;DHT22;8170;48.118;11.628;2022-12-29T01:07:50;2.80;99.90
1015;DHT22;8170;48.118;11.628;2022-12-29T01:08:53;2.80;99.90
1015;DHT22;8170;48.118;11.628;2022-12-29T01:10:10;2.80;99.90
1015;DHT22;8170;48.118;11.628;2022-12-29T01:11:14;2.80;99.90
1015;DHT22;8170;48.118;11.628;2022-12-29T01:12:18;2.70;99.90
1015;DHT22;8170;48.118;11.628;2022-12-29T01:13:43;2.70;99.90
1015;DHT22;8170;48.118;11.628;2022-12-29T01:14:47;2.70;99.90
1015;DHT22;8170;48.118;11.628;2022-12-29T01:15:50;2.70;99.90
1015;DHT22;8170;48.118;11.628;2022-12-29T01:16:54;2.70;99.90
1015;DHT22;8170;48.118;11.628;2022-12-29T01:17:56;2.70;99.90
1015;DHT22;8170;48.118;11.628;2022-12-29T01:19:00;2.60;99.90
1015;DHT22;8170;48.118;11.628;2022-12-29T01:20:03;2.60;99.90
1015;DHT22;8170;48.118;11.628;2022-12-29T01:21:09;2.60;99.90
1015;DHT22;8170;48.118;11.628;2022-12-29T01:22:11;2.60;99.90
1015;DHT22;8170;48.118;11.628;2022-12-29T01:23:15;2.60;99.90
1015;DHT22;8170;48.118;11.628;2022-12-29T01:24:20;2.60;99.90
1015;DHT22;8170;48.118;11.628;2022-12-29T01:25:23;2.60;99.90
1015;DHT22;8170;48.118;11.628;2022-12-29T01:26:25;2.60;99.90
1015;DHT22;8170;48.118;11.628;2022-12-29T01:27:28;2.60;99.90
1015;DHT22;8170;48.118;11.628;2022-12-29T01:28:33;2.60;99.90
1015;DHT22;8170;48.118;11.628;2022-12-29T01:29:35;2.60;99.90
1015;DHT22;8170;48.118;11.628;2022-12-29T01:30:39;2.60;99.90
1015;DHT22;8170;48.118;11.628;2022-12-29T01:31:41;2.60;99.90
1015;DHT22;8170;48.118;11.628;2022-12-29T01:32:45;2.60;99.90
1015;DHT22;8170;48.118;11.628;2022-12-29T01:33:47;2.50;99.90
1015;DHT22;8170;48.118;11.628;2022-12-29T01:34:50;2.50;99.90
1015;DHT22;8170;48.118;11.628;2022-12-29T01:35:53;2.50;99.90
1015;DHT22;8170;48.118;11.628;2022-12-29T01:36:57;2.50;99.90
1015;DHT22;8170;48.118;11.628;2022-12-29T01:38:01;2.50;99.90
1015;DHT22;8170;48.118;11.628;2022-12-29T01:39:03;2.50;99.90
1015;DHT22;8170;48.118;11.628;2022-12-29T01:40:07;2.60;99.90
1015;DHT22;8170;48.118;11.628;2022-12-29T01:41:11;2.60;99.90
1015;DHT22;8170;48.118;11.628;2022-12-29T01:42:17;2.60;99.90
1015;DHT22;8170;48.118;11.628;2022-12-29T01:43:20;2.50;99.90
1015;DHT22;8170;48.118;11.628;2022-12-29T01:44:53;2.60;99.90
1015;DHT22;8170;48.118;11.628;2022-12-29T01:45:57;2.50;99.90
1015;DHT22;8170;48.118;11.628;2022-12-29T01:46:59;2.60;99.90
1015;DHT22;8170;48.118;11.628;2022-12-29T01:48:04;2.50;99.90
1015;DHT22;8170;48.118;11.628;2022-12-29T01:49:14;2.60;99.90
1015;DHT22;8170;48.118;11.628;2022-12-29T01:50:22;2.60;99.90
1015;DHT22;8170;48.118;11.628;2022-12-29T01:51:30;2.60;99.90
1015;DHT22;8170;48.118;11.628;2022-12-29T01:52:38;2.60;99.90
1015;DHT22;8170;48.118;11.628;2022-12-29T01:53:45;2.60;99.90
1015;DHT22;8170;48.118;11.628;2022-12-29T01:54:51;2.60;99.90
1015;DHT22;8170;48.118;11.628;2022-12-29T01:55:59;2.60;99.90
1015;DHT22;8170;48.118;11.628;2022-12-29T01:57:07;2.60;99.90
1015;DHT22;8170;48.118;11.628;2022-12-29T01:58:12;2.60;99.90
1015;DHT22;8170;48.118;11.628;2022-12-29T01:59:22;2.70;99.90
1015;DHT22;8170;48.118;11.628;2022-12-29T02:00:27;2.70;99.90
1015;DHT22;8170;48.118;11.628;2022-12-29T02:01:31;2.60;99.90
1015;DHT22;8170;48.118;11.628;2022-12-29T02:02:35;2.60;99.90
1015;DHT22;8170;48.118;11.628;2022-12-29T02:03:39;2.70;99.90
1015;DHT22;8170;48.118;11.628;2022-12-29T02:04:44;2.70;99.90
1015;DHT22;8170;48.118;11.628;2022-12-29T02:05:55;2.70;99.90
1015;DHT22;8170;48.118;11.628;2022-12-29T02:07:01;2.70;99.90
1015;DHT22;8170;48.118;11.628;2022-12-29T02:08:08;2.70;99.90
1015;DHT22;8170;48.118;11.628;2022-12-29T02:09:11;2.70;99.90
1015;DHT22;8170;48.118;11.628;2022-12-29T02:10:15;2.70;99.90
1015;DHT22;8170;48.118;11.628;2022-12-29T02:11:18;2.80;99.90
1015;DHT22;8170;48.118;11.628;2022-12-29T02:12:23;2.70;99.90
1015;DHT22;8170;48.118;11.628;2022-12-29T02:13:26;2.70;99.90
1015;DHT22;8170;48.118;11.628;2022-12-29T02:14:31;2.70;99.90
1015;DHT22;8170;48.118;11.628;2022-12-29T02:15:40;2.80;99.90
1015;DHT22;8170;48.118;11.628;2022-12-29T02:16:58;2.80;99.90
1015;DHT22;8170;48.118;11.628;2022-12-29T02:18:14;2.80;99.90
1015;DHT22;8170;48.118;11.628;2022-12-29T02:21:27;2.80;99.90
1015;DHT22;8170;48.118;11.628;2022-12-29T02:22:35;2.80;99.90
1015;DHT22;8170;48.118;11.628;2022-12-29T02:24:04;2.80;99.90
1015;DHT22;8170;48.118;11.628;2022-12-29T02:26:59;2.80;99.90
1015;DHT22;8170;48.118;11.628;2022-12-29T02:28:37;2.80;99.90
1015;DHT22;8170;48.118;11.628;2022-12-29T02:30:03;2.90;99.90
1015;DHT22;8170;48.118;11.628;2022-12-29T02:31:12;2.90;99.90
1015;DHT22;8170;48.118;11.628;2022-12-29T02:32:22;2.90;99.90
1015;DHT22;8170;48.118;11.628;2022-12-29T02:33:37;2.90;99.90
1015;DHT22;8170;48.118;11.628;2022-12-29T02:34:49;2.90;99.90
1015;DHT22;8170;48.118;11.628;2022-12-29T02:36:00;3.00;99.90
1015;DHT22;8170;48.118;11.628;2022-12-29T02:37:15;3.00;99.90
1015;DHT22;8170;48.118;11.628;2022-12-29T02:38:25;3.10;99.90
1015;DHT22;8170;48.118;11.628;2022-12-29T02:39:37;3.10;99.90
1015;DHT22;8170;48.118;11.628;2022-12-29T02:40:43;3.10;99.90
1015;DHT22;8170;48.118;11.628;2022-12-29T02:41:58;3.10;99.90
1015;DHT22;8170;48.118;11.628;2022-12-29T02:43:08;3.10;99.90
1015;DHT22;8170;48.118;11.628;2022-12-29T02:44:21;3.20;99.90
1015;DHT22;8170;48.118;11.628;2022-12-29T02:45:31;3.20;99.90
1015;DHT22;8170;48.118;11.628;2022-12-29T02:46:40;3.20;99.90
1015;DHT22;8170;48.118;11.628;2022-12-29T02:47:51;3.20;99.90
1015;DHT22;8170;48.118;11.628;2022-12-29T02:49:03;3.30;99.90
1015;DHT22;8170;48.118;11.628;2022-12-29T02:50:13;3.30;99.90
1015;DHT22;8170;48.118;11.628;2022-12-29T02:51:23;3.40;99.90
1015;DHT22;8170;48.118;11.628;2022-12-29T02:52:30;3.40;99.90
1015;DHT22;8170;48.118;11.628;2022-12-29T02:53:35;3.40;99.90
1015;DHT22;8170;48.118;11.628;2022-12-29T02:54:56;3.40;99.90
1015;DHT22;8170;48.118;11.628;2022-12-29T02:56:00;3.40;99.90
1015;DHT22;8170;48.118;11.628;2022-12-29T02:57:07;3.40;99.90
1015;DHT22;8170;48.118;11.628;2022-12-29T02:58:16;3.40;99.90
1015;DHT22;8170;48.118;11.628;2022-12-29T02:59:20;3.40;99.90
1015;DHT22;8170;48.118;11.628;2022-12-29T03:00:23;3.40;99.90
1015;DHT22;8170;48.118;11.628;2022-12-29T03:01:39;3.40;99.90
1015;DHT22;8170;48.118;11.628;2022-12-29T03:03:19;3.50;99.90
1015;DHT22;8170;48.118;11.628;2022-12-29T03:04:33;3.50;99.90
1015;DHT22;8170;48.118;11.628;2022-12-29T03:06:03;3.50;99.90
1015;DHT22;8170;48.118;11.628;2022-12-29T03:07:16;3.50;99.90
1015;DHT22;8170;48.118;11.628;2022-12-29T03:08:29;3.50;99.90
1015;DHT22;8170;48.118;11.628;2022-12-29T03:09:37;3.60;99.90
1015;DHT22;8170;48.118;11.628;2022-12-29T03:10:48;3.60;99.90
1015;DHT22;8170;48.118;11.628;2022-12-29T03:11:58;3.60;99.90
1015;DHT22;8170;48.118;11.628;2022-12-29T03:13:15;3.60;99.90
1015;DHT22;8170;48.118;11.628;2022-12-29T03:14:52;3.70;99.90
1015;DHT22;8170;48.118;11.628;2022-12-29T03:16:21;3.70;99.90
1015;DHT22;8170;48.118;11.628;2022-12-29T03:17:32;3.80;99.90
1015;DHT22;8170;48.118;11.628;2022-12-29T03:18:46;3.80;99.90
1015;DHT22;8170;48.118;11.628;2022-12-29T03:19:59;3.90;99.90
1015;DHT22;8170;48.118;11.628;2022-12-29T03:21:08;3.90;99.90
1015;DHT22;8170;48.118;11.628;2022-12-29T03:22:17;3.90;99.90
1015;DHT22;8170;48.118;11.628;2022-12-29T03:23:45;3.90;99.90
1015;DHT22;8170;48.118;11.628;2022-12-29T03:24:54;3.90;99.90
1015;DHT22;8170;48.118;11.628;2022-12-29T03:26:02;3.90;99.90
1015;DHT22;8170;48.118;11.628;2022-12-29T03:27:08;3.90;99.90
1015;DHT22;8170;48.118;11.628;2022-12-29T03:28:20;4.00;99.90
1015;DHT22;8170;48.118;11.628;2022-12-29T03:29:26;3.90;99.90
1015;DHT22;8170;48.118;11.628;2022-12-29T03:30:30;4.00;99.90
1015;DHT22;8170;48.118;11.628;2022-12-29T03:31:37;4.00;99.90
1015;DHT22;8170;48.118;11.628;2022-12-29T03:32:44;4.00;99.90
1015;DHT22;8170;48.118;11.628;2022-12-29T03:33:50;4.00;99.90
1015;DHT22;8170;48.118;11.628;2022-12-29T03:34:55;4.10;99.90
1015;DHT22;8170;48.118;11.628;2022-12-29T03:36:02;4.10;99.90
1015;DHT22;8170;48.118;11.628;2022-12-29T03:37:09;4.10;99.90
1015;DHT22;8170;48.118;11.628;2022-12-29T03:38:17;4.10;99.90
1015;DHT22;8170;48.118;11.628;2022-12-29T03:39:23;4.20;99.90
1015;DHT22;8170;48.118;11.628;2022-12-29T03:40:27;4.20;99.90
1015;DHT22;8170;48.118;11.628;2022-12-29T03:41:32;4.20;99.90
1015;DHT22;8170;48.118;11.628;2022-12-29T03:42:39;4.30;99.90
1015;DHT22;8170;48.118;11.628;2022-12-29T03:43:42;4.30;99.90
1015;DHT22;8170;48.118;11.628;2022-12-29T03:44:46;4.30;99.90
1015;DHT22;8170;48.118;11.628;2022-12-29T03:45:50;4.40;99.90
1015;DHT22;8170;48.118;11.628;2022-12-29T03:46:53;4.40;99.90
1015;DHT22;8170;48.118;11.628;2022-12-29T03:47:57;4.40;99.90
1015;DHT22;8170;48.118;11.628;2022-12-29T03:49:01;4.50;99.90
1015;DHT22;8170;48.118;11.628;2022-12-29T03:50:04;4.50;99.90
1015;DHT22;8170;48.118;11.628;2022-12-29T03:51:11;4.60;99.90
1015;DHT22;8170;48.118;11.628;2022-12-29T03:52:13;4.60;99.90
1015;DHT22;8170;48.118;11.628;2022-12-29T03:53:19;4.60;99.90
1015;DHT22;8170;48.118;11.628;2022-12-29T03:54:21;4.60;99.90
1015;DHT22;8170;48.118;11.628;2022-12-29T03:55:25;4.60;99.90
1015;DHT22;8170;48.118;11.628;2022-12-29T03:56:27;4.60;99.90
1015;DHT22;8170;48.118;11.628;2022-12-29T03:57:30;4.70;99.90
1015;DHT22;8170;48.118;11.628;2022-12-29T03:58:36;4.70;99.90
1015;DHT22;8170;48.118;11.628;2022-12-29T03:59:53;4.70;99.90
1015;DHT22;8170;48.118;11.628;2022-12-29T04:00:56;4.70;99.90
1015;DHT22;8170;48.118;11.628;2022-12-29T04:01:59;4.70;99.90
1015;DHT22;8170;48.118;11.628;2022-12-29T04:03:03;4.80;99.90
1015;DHT22;8170;48.118;11.628;2022-12-29T04:04:07;4.80;99.90
1015;DHT22;8170;48.118;11.628;2022-12-29T04:05:09;4.80;99.90
1015;DHT22;8170;48.118;11.628;2022-12-29T04:06:13;4.80;99.90
1015;DHT22;8170;48.118;11.628;2022-12-29T04:07:22;4.80;99.90
1015;DHT22;8170;48.118;11.628;2022-12-29T04:08:27;4.90;99.90
1015;DHT22;8170;48.118;11.628;2022-12-29T04:09:30;4.90;99.90
1015;DHT22;8170;48.118;11.628;2022-12-29T04:10:33;4.90;99.90
1015;DHT22;8170;48.118;11.628;2022-12-29T04:11:38;4.90;99.90
1015;DHT22;8170;48.118;11.628;2022-12-29T04:12:42;5.00;99.90
1015;DHT22;8170;48.118;11.628;2022-12-29T04:13:44;5.00;99.90
1015;DHT22;8170;48.118;11.628;2022-12-29T04:14:51;5.00;99.90
1015;DHT22;8170;48.118;11.628;2022-12-29T04:15:54;5.00;99.90
1015;DHT22;8170;48.118;11.628;2022-12-29T04:16:57;5.00;99.90
1015;DHT22;8170;48.118;11.628;2022-12-29T04:17:59;5.10;99.90
1015;DHT22;8170;48.118;11.628;2022-12-29T04:19:05;5.10;99.90
1015;DHT22;8170;48.118;11.628;2022-12-29T04:20:09;5.10;99.90
1015;DHT22;8170;48.118;11.628;2022-12-29T04:21:32;5.10;99.90
1015;DHT22;8170;48.118;11.628;2022-12-29T04:22:35;5.20;99.90
1015;DHT22;8170;48.118;11.628;2022-12-29T04:23:38;5.20;99.90
1015;DHT22;8170;48.118;11.628;2022-12-29T04:24:43;5.20;99.90
1015;DHT22;8170;48.118;11.628;2022-12-29T04:25:46;5.20;99.90
1015;DHT22;8170;48.118;11.628;2022-12-29T04:26:50;5.20;99.90
1015;DHT22;8170;48.118;11.628;2022-12-29T04:28:04;5.20;99.90
1015;DHT22;8170;48.118;11.628;2022-12-29T04:29:33;5.30;99.90
1015;DHT22;8170;48.118;11.628;2022-12-29T04:30:54;5.30;99.90
1015;DHT22;8170;48.118;11.628;2022-12-29T04:32:05;5.30;99.90
1015;DHT22;8170;48.118;11.628;2022-12-29T04:33:12;5.30;99.90
1015;DHT22;8170;48.118;11.628;2022-12-29T04:34:18;5.30;99.90
1015;DHT22;8170;48.118;11.628;2022-12-29T04:35:22;5.30;99.90
1015;DHT22;8170;48.118;11.628;2022-12-29T04:36:25;5.30;99.90
1015;DHT22;8170;48.118;11.628;2022-12-29T04:37:31;5.30;99.90
1015;DHT22;8170;48.118;11.628;2022-12-29T04:38:33;5.30;99.90
1015;DHT22;8170;48.118;11.628;2022-12-29T04:39:38;5.30;99.90
1015;DHT22;8170;48.118;11.628;2022-12-29T04:40:43;5.30;99.90
1015;DHT22;8170;48.118;11.628;2022-12-29T04:41:46;5.30;99.90
1015;DHT22;8170;48.118;11.628;2022-12-29T04:42:53;5.30;99.90
1015;DHT22;8170;48.118;11.628;2022-12-29T04:43:57;5.30;99.90
1015;DHT22;8170;48.118;11.628;2022-12-29T04:45:14;5.30;99.90
1015;DHT22;8170;48.118;11.628;2022-12-29T04:46:33;5.30;99.90
1015;DHT22;8170;48.118;11.628;2022-12-29T04:47:42;5.30;99.90
1015;DHT22;8170;48.118;11.628;2022-12-29T04:49:11;5.30;99.90
1015;DHT22;8170;48.118;11.628;2022-12-29T04:50:28;5.30;99.90
1015;DHT22;8170;48.118;11.628;2022-12-29T04:51:48;5.30;99.90
1015;DHT22;8170;48.118;11.628;2022-12-29T04:52:52;5.40;99.90
1015;DHT22;8170;48.118;11.628;2022-12-29T04:53:55;5.40;99.90
1015;DHT22;8170;48.118;11.628;2022-12-29T04:54:59;5.40;99.90
1015;DHT22;8170;48.118;11.628;2022-12-29T04:56:02;5.40;99.90
1015;DHT22;8170;48.118;11.628;2022-12-29T04:57:06;5.40;99.90
1015;DHT22;8170;48.118;11.628;2022-12-29T04:58:10;5.40;99.90
1015;DHT22;8170;48.118;11.628;2022-12-29T04:59:21;5.40;99.90
1015;DHT22;8170;48.118;11.628;2022-12-29T05:00:27;5.40;99.90
1015;DHT22;8170;48.118;11.628;2022-12-29T05:01:30;5.40;99.90
1015;DHT22;8170;48.118;11.628;2022-12-29T05:02:32;5.40;99.90
1015;DHT22;8170;48.118;11.628;2022-12-29T05:03:36;5.40;99.90
1015;DHT22;8170;48.118;11.628;2022-12-29T05:04:38;5.40;99.90
1015;DHT22;8170;48.118;11.628;2022-12-29T05:05:43;5.50;99.90
1015;DHT22;8170;48.118;11.628;2022-12-29T05:06:47;5.50;99.90
1015;DHT22;8170;48.118;11.628;2022-12-29T05:07:51;5.50;99.90
1015;DHT22;8170;48.118;11.628;2022-12-29T05:08:53;5.50;99.90
1015;DHT22;8170;48.118;11.628;2022-12-29T05:09:57;5.50;99.90
1015;DHT22;8170;48.118;11.628;2022-12-29T05:11:00;5.50;99.90
1015;DHT22;8170;48.118;11.628;2022-12-29T05:12:04;5.50;99.90
1015;DHT22;8170;48.118;11.628;2022-12-29T05:13:09;5.50;99.90
1015;DHT22;8170;48.118;11.628;2022-12-29T05:14:13;5.50;99.90
1015;DHT22;8170;48.118;11.628;2022-12-29T05:15:15;5.50;99.90
1015;DHT22;8170;48.118;11.628;2022-12-29T05:16:19;5.50;99.90
1015;DHT22;8170;48.118;11.628;2022-12-29T05:17:22;5.50;99.90
1015;DHT22;8170;48.118;11.628;2022-12-29T05:18:25;5.50;99.90
1015;DHT22;8170;48.118;11.628;2022-12-29T05:19:28;5.50;99.90
1015;DHT22;8170;48.118;11.628;2022-12-29T05:20:31;5.50;99.90
1015;DHT22;8170;48.118;11.628;2022-12-29T05:21:35;5.50;99.90
1015;DHT22;8170;48.118;11.628;2022-12-29T05:22:38;5.50;99.90
1015;DHT22;8170;48.118;11.628;2022-12-29T05:23:41;5.50;99.90
1015;DHT22;8170;48.118;11.628;2022-12-29T05:24:44;5.50;99.90
1015;DHT22;8170;48.118;11.628;2022-12-29T05:25:46;5.50;99.90
1015;DHT22;8170;48.118;11.628;2022-12-29T05:26:52;5.50;99.90
1015;DHT22;8170;48.118;11.628;2022-12-29T05:28:14;5.60;99.90
1015;DHT22;8170;48.118;11.628;2022-12-29T05:29:32;5.50;99.90
1015;DHT22;8170;48.118;11.628;2022-12-29T05:30:34;5.50;99.90
1015;DHT22;8170;48.118;11.628;2022-12-29T05:31:37;5.50;99.90
1015;DHT22;8170;48.118;11.628;2022-12-29T05:32:40;5.50;99.90
1015;DHT22;8170;48.118;11.628;2022-12-29T05:33:44;5.60;99.90
1015;DHT22;8170;48.118;11.628;2022-12-29T05:34:47;5.60;99.90
1015;DHT22;8170;48.118;11.628;2022-12-29T05:35:51;5.50;99.90
1015;DHT22;8170;48.118;11.628;2022-12-29T05:36:56;5.50;99.90
1015;DHT22;8170;48.118;11.628;2022-12-29T05:37:59;5.50;99.90
1015;DHT22;8170;48.118;11.628;2022-12-29T05:39:01;5.50;99.90
1015;DHT22;8170;48.118;11.628;2022-12-29T05:40:06;5.50;99.90
1015;DHT22;8170;48.118;11.628;2022-12-29T05:41:09;5.50;99.90
1015;DHT22;8170;48.118;11.628;2022-12-29T05:42:33;5.50;99.90
1015;DHT22;8170;48.118;11.628;2022-12-29T05:43:52;5.50;99.90
1015;DHT22;8170;48.118;11.628;2022-12-29T05:44:59;5.50;99.90
1015;DHT22;8170;48.118;11.628;2022-12-29T05:46:21;5.50;99.90
1015;DHT22;8170;48.118;11.628;2022-12-29T05:47:39;5.50;99.90
1015;DHT22;8170;48.118;11.628;2022-12-29T05:48:49;5.60;99.90
1015;DHT22;8170;48.118;11.628;2022-12-29T05:50:00;5.60;99.90
1015;DHT22;8170;48.118;11.628;2022-12-29T05:51:13;5.50;99.90
1015;DHT22;8170;48.118;11.628;2022-12-29T05:52:23;5.50;99.90
1015;DHT22;8170;48.118;11.628;2022-12-29T05:53:27;5.50;99.90
1015;DHT22;8170;48.118;11.628;2022-12-29T05:54:31;5.50;99.90
1015;DHT22;8170;48.118;11.628;2022-12-29T05:55:36;5.60;99.90
1015;DHT22;8170;48.118;11.628;2022-12-29T05:56:43;5.60;99.90
1015;DHT22;8170;48.118;11.628;2022-12-29T05:57:47;5.50;99.90
1015;DHT22;8170;48.118;11.628;2022-12-29T05:58:51;5.50;99.90
1015;DHT22;8170;48.118;11.628;2022-12-29T05:59:55;5.50;99.90
1015;DHT22;8170;48.118;11.628;2022-12-29T06:00:59;5.50;99.90
1015;DHT22;8170;48.118;11.628;2022-12-29T06:02:01;5.50;99.90
1015;DHT22;8170;48.118;11.628;2022-12-29T06:03:06;5.50;99.90
1015;DHT22;8170;48.118;11.628;2022-12-29T06:04:08;5.50;99.90
1015;DHT22;8170;48.118;11.628;2022-12-29T06:05:12;5.50;99.90
1015;DHT22;8170;48.118;11.628;2022-12-29T06:06:15;5.50;99.90
1015;DHT22;8170;48.118;11.628;2022-12-29T06:07:18;5.50;99.90
1015;DHT22;8170;48.118;11.628;2022-12-29T06:08:23;5.50;99.90
1015;DHT22;8170;48.118;11.628;2022-12-29T06:09:27;5.50;99.90
1015;DHT22;8170;48.118;11.628;2022-12-29T06:10:29;5.50;99.90
1015;DHT22;8170;48.118;11.628;2022-12-29T06:11:37;5.40;99.90
1015;DHT22;8170;48.118;11.628;2022-12-29T06:12:39;5.40;99.90
1015;DHT22;8170;48.118;11.628;2022-12-29T06:13:43;5.40;99.90
1015;DHT22;8170;48.118;11.628;2022-12-29T06:14:47;5.40;99.90
1015;DHT22;8170;48.118;11.628;2022-12-29T06:15:49;5.40;99.90
1015;DHT22;8170;48.118;11.628;2022-12-29T06:16:54;5.40;99.90
1015;DHT22;8170;48.118;11.628;2022-12-29T06:17:57;5.40;99.90
1015;DHT22;8170;48.118;11.628;2022-12-29T06:19:00;5.40;99.90
1015;DHT22;8170;48.118;11.628;2022-12-29T06:20:05;5.40;99.90
1015;DHT22;8170;48.118;11.628;2022-12-29T06:21:08;5.40;99.90
1015;DHT22;8170;48.118;11.628;2022-12-29T06:22:11;5.40;99.90
1015;DHT22;8170;48.118;11.628;2022-12-29T06:23:15;5.40;99.90
1015;DHT22;8170;48.118;11.628;2022-12-29T06:24:22;5.40;99.90
1015;DHT22;8170;48.118;11.628;2022-12-29T06:25:24;5.40;99.90
1015;DHT22;8170;48.118;11.628;2022-12-29T06:26:27;5.40;99.90
1015;DHT22;8170;48.118;11.628;2022-12-29T06:27:30;5.40;99.90
1015;DHT22;8170;48.118;11.628;2022-12-29T06:28:34;5.30;99.90
1015;DHT22;8170;48.118;11.628;2022-12-29T06:29:37;5.30;99.90
1015;DHT22;8170;48.118;11.628;2022-12-29T06:30:43;5.30;99.90
1015;DHT22;8170;48.118;11.628;2022-12-29T06:31:46;5.30;99.90
1015;DHT22;8170;48.118;11.628;2022-12-29T06:32:51;5.30;99.90
1015;DHT22;8170;48.118;11.628;2022-12-29T06:33:54;5.30;99.90
1015;DHT22;8170;48.118;11.628;2022-12-29T06:35:05;5.40;99.90
1015;DHT22;8170;48.118;11.628;2022-12-29T06:36:11;5.40;99.90
1015;DHT22;8170;48.118;11.628;2022-12-29T06:37:15;5.40;99.90
1015;DHT22;8170;48.118;11.628;2022-12-29T06:38:17;5.30;99.90
1015;DHT22;8170;48.118;11.628;2022-12-29T06:39:22;5.30;99.90
1015;DHT22;8170;48.118;11.628;2022-12-29T06:40:35;5.30;99.90
1015;DHT22;8170;48.118;11.628;2022-12-29T06:41:55;5.30;99.90
1015;DHT22;8170;48.118;11.628;2022-12-29T06:43:14;5.30;99.90
1015;DHT22;8170;48.118;11.628;2022-12-29T06:44:38;5.30;99.90
1015;DHT22;8170;48.118;11.628;2022-12-29T06:45:44;5.30;99.90
1015;DHT22;8170;48.118;11.628;2022-12-29T06:46:47;5.30;99.90
1015;DHT22;8170;48.118;11.628;2022-12-29T06:47:50;5.40;99.90
1015;DHT22;8170;48.118;11.628;2022-12-29T06:48:53;5.30;99.90
1015;DHT22;8170;48.118;11.628;2022-12-29T06:49:55;5.20;99.90
1015;DHT22;8170;48.118;11.628;2022-12-29T06:50:59;5.20;99.90
1015;DHT22;8170;48.118;11.628;2022-12-29T06:52:01;5.20;99.90
1015;DHT22;8170;48.118;11.628;2022-12-29T06:53:13;5.20;99.90
1015;DHT22;8170;48.118;11.628;2022-12-29T06:54:16;5.30;99.90
1015;DHT22;8170;48.118;11.628;2022-12-29T06:55:20;5.30;99.90
1015;DHT22;8170;48.118;11.628;2022-12-29T06:56:24;5.30;99.90
1015;DHT22;8170;48.118;11.628;2022-12-29T06:57:26;5.30;99.90
1015;DHT22;8170;48.118;11.628;2022-12-29T06:58:29;5.30;99.90
1015;DHT22;8170;48.118;11.628;2022-12-29T06:59:31;5.30;99.90
1015;DHT22;8170;48.118;11.628;2022-12-29T07:00:35;5.40;99.90
1015;DHT22;8170;48.118;11.628;2022-12-29T07:01:37;5.30;99.90
1015;DHT22;8170;48.118;11.628;2022-12-29T07:02:41;5.40;99.90
1015;DHT22;8170;48.118;11.628;2022-12-29T07:03:44;5.40;99.90
1015;DHT22;8170;48.118;11.628;2022-12-29T07:04:47;5.40;99.90
1015;DHT22;8170;48.118;11.628;2022-12-29T07:05:49;5.40;99.90
1015;DHT22;8170;48.118;11.628;2022-12-29T07:06:53;5.40;99.90
1015;DHT22;8170;48.118;11.628;2022-12-29T07:07:55;5.40;99.90
1015;DHT22;8170;48.118;11.628;2022-12-29T07:08:59;5.40;99.90
1015;DHT22;8170;48.118;11.628;2022-12-29T07:10:01;5.40;99.90
1015;DHT22;8170;48.118;11.628;2022-12-29T07:11:06;5.40;99.90
1015;DHT22;8170;48.118;11.628;2022-12-29T07:12:09;5.40;99.90
1015;DHT22;8170;48.118;11.628;2022-12-29T07:13:12;5.40;99.90
1015;DHT22;8170;48.118;11.628;2022-12-29T07:14:15;5.40;99.90
1015;DHT22;8170;48.118;11.628;2022-12-29T07:15:18;5.50;99.90
1015;DHT22;8170;48.118;11.628;2022-12-29T07:16:20;5.50;99.90
1015;DHT22;8170;48.118;11.628;2022-12-29T07:17:23;5.50;99.90
1015;DHT22;8170;48.118;11.628;2022-12-29T07:18:26;5.50;99.90
1015;DHT22;8170;48.118;11.628;2022-12-29T07:19:29;5.50;99.90
1015;DHT22;8170;48.118;11.628;2022-12-29T07:20:31;5.50;99.90
1015;DHT22;8170;48.118;11.628;2022-12-29T07:21:35;5.50;99.90
1015;DHT22;8170;48.118;11.628;2022-12-29T07:22:37;5.50;99.90
1015;DHT22;8170;48.118;11.628;2022-12-29T07:23:40;5.50;99.90